This is the latest recevied weather packets stored in our database for station/object EA3CH. If no packets are shown the sender has not sent any weather packets the latest 10 day(s).
| Time | Temp. | Humidity | Pressure | Rain* | Wind** | Luminosity | Snow |
|---|---|---|---|---|---|---|---|
| 1787516103 | 21.67° C | 96% | 1018.8 hPa | 0 mm | - | 0 W/m² | - |
| 1787515204 | 22.22° C | 86% | 1018.7 hPa | 0 mm | - | 0 W/m² | - |
| 1787514305 | 22.22° C | 86% | 1018.3 hPa | 0 mm | - | 0 W/m² | - |
| 1787513405 | 22.22° C | 86% | 1018.1 hPa | 0 mm | - | 0 W/m² | - |
| 1787512503 | 22.22° C | 94% | 1018.3 hPa | 0 mm | - | 0 W/m² | - |
| 1787511604 | 22.78° C | 94% | 1018.3 hPa | 0 mm | - | 0 W/m² | - |
| 1787510705 | 22.78° C | 85% | 1018 hPa | 0 mm | - | 0 W/m² | - |
| 1787509805 | 22.78° C | 84% | 1017.5 hPa | 0 mm | - | 0 W/m² | - |
| 1787508905 | 22.78° C | 84% | 1017 hPa | 0 mm | - | 0 W/m² | - |
| 1787508904 | 22.78° C | 92% | 1017.1 hPa | 0 mm | - | 0 W/m² | - |
| 1787508005 | 23.33° C | 83% | 1017 hPa | 0 mm | - | 0 W/m² | - |
| 1787508003 | 22.78° C | 92% | 1017.2 hPa | 0 mm | - | 0 W/m² | - |
| 1787507104 | 23.33° C | 92% | 1017.5 hPa | 0 mm | - | 0 W/m² | - |
| 1787507104 | 23.33° C | 83% | 1017.4 hPa | 0 mm | - | 0 W/m² | - |
| 1787506204 | 23.33° C | 91% | 1017.8 hPa | 0 mm | - | 0 W/m² | - |
| 1787505305 | 23.89° C | 82% | 1017.8 hPa | 0 mm | - | 0 W/m² | - |
| 1787505303 | 23.33° C | 90% | 1018 hPa | 0 mm | - | 0 W/m² | - |
| 1787504405 | 23.89° C | 81% | 1017.8 hPa | 0 mm | - | 0 W/m² | - |
| 1787504404 | 23.89° C | 88% | 1018 hPa | 0 mm | - | 0 W/m² | - |
| 1787503506 | 23.89° C | 80% | 1017.9 hPa | 0 mm | - | 0 W/m² | - |
| 1787503504 | 23.89° C | 88% | 1018.1 hPa | 0 mm | - | 0 W/m² | - |
| 1787502606 | 24.44° C | 79% | 1017.7 hPa | 0 mm | - | 0 W/m² | - |
| 1787502604 | 24.44° C | 87% | 1017.9 hPa | 0 mm | - | 0 W/m² | - |
| 1787501703 | 25.56° C | 85% | 1018 hPa | 0 mm | - | 0 W/m² | - |
| 1787500807 | 25.56° C | 76% | 1017.6 hPa | 0 mm | - | 0 W/m² | - |
* Rain latest hour (hover to see other rain measurements)
** Current wind speed in m/s (hover to see current wind gust speed)